This demonstration page uses our WeatherBlox Daily Observations layout. Learn more.

38.88101, -77.10428

Hourly Observations for November 14, 2016

Temp ( °F °C ) Dew Point ( °F °C ) Humidity (%) Winds ( mph kmh ) Pressure ( in mb ) Visibility ( mi km ) Precip ( " mm )
12:52 am 00:52 Clear 42 5.6 38 3.3 85 85 SSW 7 11 30.15 1021 10 16.09344 0 0
1:52 am 01:52 Clear 44 6.7 38 3.3 79 79 SW 3 6 30.12 1020 10 16.09344 0 0
2:52 am 02:52 Clear 43 6.1 37 2.8 80 80 Calm 30.12 1020 10 16.09344 0 0
3:52 am 03:52 Clear 40 4.4 34 1.1 79 79 WSW 5 7 30.12 1020 10 16.09344 0 0
4:52 am 04:52 Clear 39 3.9 30 -1.1 70 70 Calm 30.12 1020 10 16.09344 0 0
5:52 am 05:52 Mostly Clear 37 2.8 30 -1.1 76 76 SW 5 7 30.09 1019 10 16.09344 0 0
6:52 am 06:52 Mostly Sunny 37 2.8 31 -0.6 79 79 SW 3 6 30.09 1019 10 16.09344 0 0
7:52 am 07:52 Mostly Sunny 41 5 36 2.2 82 82 Calm 30.12 1020 10 16.09344 0 0
8:52 am 08:52 Partly Cloudy 46 7.8 40 4.4 79 79 Calm 30.12 1020 10 16.09344 0 0
9:52 am 09:52 Partly Cloudy 48 8.9 36 2.2 63 63 Calm 30.12 1020 10 16.09344 0 0
10:52 am 10:52 Mostly Cloudy 51 10.6 37 2.8 59 59 SSE 6 9 30.09 1019 10 16.09344 0 0
11:52 am 11:52 Mostly Cloudy 53 11.7 37 2.8 55 55 SSE 5 7 30.09 1019 10 16.09344 0 0
12:52 pm 12:52 Cloudy 55 12.8 39 3.9 55 55 S 7 11 30.06 1018 10 16.09344 0 0
1:52 pm 13:52 Cloudy 55 12.8 36 2.2 49 49 S 7 11 30.03 1017 10 16.09344 0 0
2:52 pm 14:52 Cloudy 55 12.8 39 3.9 55 55 S 8 13 30.03 1017 10 16.09344 0 0
3:52 pm 15:52 Mostly Cloudy 54 12.2 41 5 62 62 S 7 11 30.03 1017 10 16.09344 0 0
4:52 pm 16:52 Cloudy 53 11.7 38 3.3 57 57 S 6 9 30 1016 10 16.09344 0.001 0.001
5:52 pm 17:52 Mostly Cloudy 53 11.7 42 5.6 66 66 S 5 7 30 1016 10 16.09344 0 0
6:52 pm 18:52 Cloudy 53 11.7 38 3.3 57 57 SW 3 6 30.03 1017 10 16.09344 0 0
7:52 pm 19:52 Cloudy 54 12.2 34 1.1 47 47 WSW 5 7 30 1016 10 16.09344 0 0
8:52 pm 20:52 Cloudy 53 11.7 39 3.9 59 59 NNE 3 6 30 1016 10 16.09344 0.001 0.001
9:52 pm 21:52 Cloudy 53 11.7 41 5 64 64 Calm 30 1016 10 16.09344 0 0
10:52 pm 22:52 Cloudy with Light Rain 51 10.6 40 4.4 66 66 NNW 7 11 29.97 1015 10 16.09344 0.001 0.001
11:52 pm 23:52 Cloudy 51 10.6 37 2.8 59 59 Calm 29.97 1015 10 16.09344 0.001 0.001

Powered by AerisWeather